sensor_id;sensor_type;location;lat;lon;timestamp;pressure;altitude;pressure_sealevel;temperature;humidity
23281;BME280;11809;56.390;-3.266;2022-09-03T00:00:38;100778.44;;;18.84;65.62
23281;BME280;11809;56.390;-3.266;2022-09-03T00:03:17;100767.81;;;18.84;65.77
23281;BME280;11809;56.390;-3.266;2022-09-03T00:13:46;100762.69;;;18.81;65.80
23281;BME280;11809;56.390;-3.266;2022-09-03T00:16:19;100767.03;;;18.82;65.83
23281;BME280;11809;56.390;-3.266;2022-09-03T00:19:00;100756.50;;;18.80;65.89
23281;BME280;11809;56.390;-3.266;2022-09-03T00:21:43;100754.81;;;18.79;65.85
23281;BME280;11809;56.390;-3.266;2022-09-03T00:24:14;100765.34;;;18.81;66.01
23281;BME280;11809;56.390;-3.266;2022-09-03T00:26:46;100767.28;;;18.79;65.63
23281;BME280;11809;56.390;-3.266;2022-09-03T00:29:22;100756.50;;;18.80;65.96
23281;BME280;11809;56.390;-3.266;2022-09-03T00:31:54;100758.31;;;18.80;65.73
23281;BME280;11809;56.390;-3.266;2022-09-03T00:34:28;100760.97;;;18.80;65.98
23281;BME280;11809;56.390;-3.266;2022-09-03T00:36:57;100761.09;;;18.78;66.10
23281;BME280;11809;56.390;-3.266;2022-09-03T00:39:26;100758.53;;;18.76;65.96
23281;BME280;11809;56.390;-3.266;2022-09-03T00:52:59;100742.69;;;18.75;66.09
23281;BME280;11809;56.390;-3.266;2022-09-03T00:55:57;100737.34;;;18.75;65.95
23281;BME280;11809;56.390;-3.266;2022-09-03T01:07:31;100747.28;;;18.73;66.31
23281;BME280;11809;56.390;-3.266;2022-09-03T01:10:34;100745.44;;;18.73;66.23
23281;BME280;11809;56.390;-3.266;2022-09-03T01:13:26;100751.75;;;18.72;65.93
23281;BME280;11809;56.390;-3.266;2022-09-03T01:16:13;100745.44;;;18.73;66.12
23281;BME280;11809;56.390;-3.266;2022-09-03T01:30:21;100732.38;;;18.70;66.24
23281;BME280;11809;56.390;-3.266;2022-09-03T01:40:47;100720.88;;;18.70;66.34
23281;BME280;11809;56.390;-3.266;2022-09-03T01:46:09;100707.66;;;18.68;66.26
23281;BME280;11809;56.390;-3.266;2022-09-03T01:49:04;100712.97;;;18.68;66.36
23281;BME280;11809;56.390;-3.266;2022-09-03T01:51:37;100703.31;;;18.67;66.01
23281;BME280;11809;56.390;-3.266;2022-09-03T02:02:36;100712.38;;;18.65;66.43
23281;BME280;11809;56.390;-3.266;2022-09-03T02:05:17;100715.75;;;18.67;66.33
23281;BME280;11809;56.390;-3.266;2022-09-03T02:10:27;100716.63;;;18.67;66.40
23281;BME280;11809;56.390;-3.266;2022-09-03T02:13:03;100707.91;;;18.65;66.35
23281;BME280;11809;56.390;-3.266;2022-09-03T02:15:31;100710.56;;;18.65;66.23
23281;BME280;11809;56.390;-3.266;2022-09-03T02:18:03;100706.19;;;18.64;66.24
23281;BME280;11809;56.390;-3.266;2022-09-03T02:20:32;100723.03;;;18.65;66.23
23281;BME280;11809;56.390;-3.266;2022-09-03T02:22:59;100711.53;;;18.64;66.14
23281;BME280;11809;56.390;-3.266;2022-09-03T02:25:32;100708.94;;;18.63;66.44
23281;BME280;11809;56.390;-3.266;2022-09-03T02:28:03;100709.81;;;18.63;66.44
23281;BME280;11809;56.390;-3.266;2022-09-03T02:30:41;100714.28;;;18.63;66.45
23281;BME280;11809;56.390;-3.266;2022-09-03T02:33:09;100705.47;;;18.62;66.58
23281;BME280;11809;56.390;-3.266;2022-09-03T02:35:36;100700.13;;;18.62;66.41
23281;BME280;11809;56.390;-3.266;2022-09-03T02:38:15;100701.94;;;18.62;66.40
23281;BME280;11809;56.390;-3.266;2022-09-03T02:40:43;100700.97;;;18.63;66.33
23281;BME280;11809;56.390;-3.266;2022-09-03T02:43:30;100685.97;;;18.62;66.47
23281;BME280;11809;56.390;-3.266;2022-09-03T02:46:01;100692.16;;;18.62;66.49
23281;BME280;11809;56.390;-3.266;2022-09-03T02:48:29;100693.09;;;18.61;66.39
23281;BME280;11809;56.390;-3.266;2022-09-03T02:50:56;100698.41;;;18.61;66.50
23281;BME280;11809;56.390;-3.266;2022-09-03T02:53:23;100694.91;;;18.61;66.39
23281;BME280;11809;56.390;-3.266;2022-09-03T02:55:50;100694.06;;;18.60;66.73
23281;BME280;11809;56.390;-3.266;2022-09-03T02:58:17;100687.91;;;18.60;66.35
23281;BME280;11809;56.390;-3.266;2022-09-03T03:00:44;100684.38;;;18.59;66.65
23281;BME280;11809;56.390;-3.266;2022-09-03T03:03:11;100686.19;;;18.59;66.51
23281;BME280;11809;56.390;-3.266;2022-09-03T03:05:44;100688.00;;;18.58;66.62
23281;BME280;11809;56.390;-3.266;2022-09-03T03:08:13;100682.56;;;18.60;66.51
23281;BME280;11809;56.390;-3.266;2022-09-03T03:10:48;100680.88;;;18.59;66.33
23281;BME280;11809;56.390;-3.266;2022-09-03T03:13:17;100688.00;;;18.58;66.46
23281;BME280;11809;56.390;-3.266;2022-09-03T03:15:44;100680.00;;;18.58;66.45
23281;BME280;11809;56.390;-3.266;2022-09-03T03:18:13;100667.69;;;18.57;66.67
23281;BME280;11809;56.390;-3.266;2022-09-03T03:20:41;100673.84;;;18.58;66.68
23281;BME280;11809;56.390;-3.266;2022-09-03T03:23:08;100667.69;;;18.57;66.61
23281;BME280;11809;56.390;-3.266;2022-09-03T03:25:37;100660.66;;;18.56;66.57
23281;BME280;11809;56.390;-3.266;2022-09-03T03:28:05;100671.28;;;18.56;66.69
23281;BME280;11809;56.390;-3.266;2022-09-03T03:30:33;100665.13;;;18.56;66.83
23281;BME280;11809;56.390;-3.266;2022-09-03T03:33:00;100658.94;;;18.55;66.73
23281;BME280;11809;56.390;-3.266;2022-09-03T03:35:27;100659.78;;;18.56;66.52
23281;BME280;11809;56.390;-3.266;2022-09-03T03:37:57;100665.25;;;18.54;67.01
23281;BME280;11809;56.390;-3.266;2022-09-03T03:40:24;100656.41;;;18.54;66.86
23281;BME280;11809;56.390;-3.266;2022-09-03T03:42:51;100655.44;;;18.55;66.83
23281;BME280;11809;56.390;-3.266;2022-09-03T03:45:19;100649.28;;;18.54;66.70
23281;BME280;11809;56.390;-3.266;2022-09-03T03:47:46;100649.28;;;18.54;66.53
23281;BME280;11809;56.390;-3.266;2022-09-03T03:50:13;100652.78;;;18.55;66.73
23281;BME280;11809;56.390;-3.266;2022-09-03T03:52:40;100655.53;;;18.53;66.99
23281;BME280;11809;56.390;-3.266;2022-09-03T03:55:07;100650.22;;;18.53;67.03
23281;BME280;11809;56.390;-3.266;2022-09-03T03:57:34;100655.53;;;18.53;66.63
23281;BME280;11809;56.390;-3.266;2022-09-03T04:00:03;100663.53;;;18.53;66.90
23281;BME280;11809;56.390;-3.266;2022-09-03T04:02:30;100646.59;;;18.54;66.89
23281;BME280;11809;56.390;-3.266;2022-09-03T04:05:01;100636.06;;;18.53;67.17
23281;BME280;11809;56.390;-3.266;2022-09-03T04:07:28;100641.38;;;18.53;66.89
23281;BME280;11809;56.390;-3.266;2022-09-03T04:09:56;100632.53;;;18.52;66.90
23281;BME280;11809;56.390;-3.266;2022-09-03T04:12:23;100631.72;;;18.52;66.92
23281;BME280;11809;56.390;-3.266;2022-09-03T04:14:49;100627.34;;;18.51;66.93
23281;BME280;11809;56.390;-3.266;2022-09-03T04:17:16;100640.66;;;18.51;66.99
23281;BME280;11809;56.390;-3.266;2022-09-03T04:19:49;100646.81;;;18.51;66.88
23281;BME280;11809;56.390;-3.266;2022-09-03T04:22:16;100641.50;;;18.51;66.87
23281;BME280;11809;56.390;-3.266;2022-09-03T04:24:44;100650.44;;;18.50;66.81
23281;BME280;11809;56.390;-3.266;2022-09-03T04:27:11;100640.78;;;18.49;67.03
23281;BME280;11809;56.390;-3.266;2022-09-03T04:29:38;100644.25;;;18.50;67.13
23281;BME280;11809;56.390;-3.266;2022-09-03T04:32:05;100638.13;;;18.49;67.17
23281;BME280;11809;56.390;-3.266;2022-09-03T04:34:50;100648.75;;;18.49;67.25
23281;BME280;11809;56.390;-3.266;2022-09-03T04:37:17;100648.75;;;18.49;66.99
23281;BME280;11809;56.390;-3.266;2022-09-03T04:39:45;100655.75;;;18.50;67.32
23281;BME280;11809;56.390;-3.266;2022-09-03T04:42:12;100647.78;;;18.50;67.08
23281;BME280;11809;56.390;-3.266;2022-09-03T04:44:39;100645.13;;;18.50;66.95
23281;BME280;11809;56.390;-3.266;2022-09-03T04:47:06;100640.78;;;18.49;67.07
23281;BME280;11809;56.390;-3.266;2022-09-03T04:49:33;100640.78;;;18.49;67.26
23281;BME280;11809;56.390;-3.266;2022-09-03T04:52:01;100642.59;;;18.49;67.20
23281;BME280;11809;56.390;-3.266;2022-09-03T04:54:29;100645.34;;;18.47;67.19
23281;BME280;11809;56.390;-3.266;2022-09-03T04:56:56;100646.19;;;18.48;67.28
23281;BME280;11809;56.390;-3.266;2022-09-03T04:59:23;100635.53;;;18.48;67.16
23281;BME280;11809;56.390;-3.266;2022-09-03T05:01:50;100636.41;;;18.48;67.35
23281;BME280;11809;56.390;-3.266;2022-09-03T05:04:22;100638.31;;;18.46;67.28
23281;BME280;11809;56.390;-3.266;2022-09-03T05:06:48;100632.97;;;18.46;67.38
23281;BME280;11809;56.390;-3.266;2022-09-03T05:09:15;100631.09;;;18.48;67.24
23281;BME280;11809;56.390;-3.266;2022-09-03T05:11:42;100633.75;;;18.48;67.08
23281;BME280;11809;56.390;-3.266;2022-09-03T05:14:10;100641.72;;;18.48;67.48
23281;BME280;11809;56.390;-3.266;2022-09-03T05:16:38;100631.09;;;18.48;67.27
23281;BME280;11809;56.390;-3.266;2022-09-03T05:19:05;100633.75;;;18.48;67.49
23281;BME280;11809;56.390;-3.266;2022-09-03T05:21:34;100628.28;;;18.50;67.83
23281;BME280;11809;56.390;-3.266;2022-09-03T05:24:04;100631.09;;;18.48;68.28
23281;BME280;11809;56.390;-3.266;2022-09-03T05:26:35;100632.78;;;18.49;68.10
23281;BME280;11809;56.390;-3.266;2022-09-03T05:29:04;100632.78;;;18.49;68.33
23281;BME280;11809;56.390;-3.266;2022-09-03T05:31:36;100631.94;;;18.49;68.29
23281;BME280;11809;56.390;-3.266;2022-09-03T05:34:05;100630.84;;;18.51;68.33
23281;BME280;11809;56.390;-3.266;2022-09-03T05:36:34;100640.53;;;18.52;68.35
23281;BME280;11809;56.390;-3.266;2022-09-03T05:39:03;100640.53;;;18.52;68.39
23281;BME280;11809;56.390;-3.266;2022-09-03T05:41:30;100632.53;;;18.52;68.45
23281;BME280;11809;56.390;-3.266;2022-09-03T05:43:59;100638.13;;;18.49;68.50
23281;BME280;11809;56.390;-3.266;2022-09-03T05:46:30;100636.19;;;18.51;68.28
23281;BME280;11809;56.390;-3.266;2022-09-03T05:48:59;100641.50;;;18.51;68.57
23281;BME280;11809;56.390;-3.266;2022-09-03T05:51:28;100628.28;;;18.50;68.61
23281;BME280;11809;56.390;-3.266;2022-09-03T05:53:56;100634.47;;;18.50;68.46
23281;BME280;11809;56.390;-3.266;2022-09-03T05:56:24;100636.19;;;18.51;68.51
23281;BME280;11809;56.390;-3.266;2022-09-03T05:58:53;100641.50;;;18.51;68.47
23281;BME280;11809;56.390;-3.266;2022-09-03T06:01:23;100629.88;;;18.52;68.53
23281;BME280;11809;56.390;-3.266;2022-09-03T06:04:05;100633.41;;;18.53;68.34
23281;BME280;11809;56.390;-3.266;2022-09-03T06:06:34;100634.97;;;18.55;68.41
23281;BME280;11809;56.390;-3.266;2022-09-03T06:09:08;100634.03;;;18.56;68.60
23281;BME280;11809;56.390;-3.266;2022-09-03T06:11:37;100630.50;;;18.56;68.48
23281;BME280;11809;56.390;-3.266;2022-09-03T06:14:07;100633.19;;;18.56;68.60
23281;BME280;11809;56.390;-3.266;2022-09-03T06:16:37;100626.03;;;18.56;68.46
23281;BME280;11809;56.390;-3.266;2022-09-03T06:19:04;100634.88;;;18.57;68.68
23281;BME280;11809;56.390;-3.266;2022-09-03T06:21:39;100633.91;;;18.58;69.44
23281;BME280;11809;56.390;-3.266;2022-09-03T06:24:13;100625.91;;;18.58;69.33
23281;BME280;11809;56.390;-3.266;2022-09-03T06:26:41;100632.59;;;18.63;68.99
23281;BME280;11809;56.390;-3.266;2022-09-03T06:29:09;100643.16;;;18.65;69.22
23281;BME280;11809;56.390;-3.266;2022-09-03T06:31:37;100628.03;;;18.65;69.34
23281;BME280;11809;56.390;-3.266;2022-09-03T06:34:05;100637.63;;;18.68;69.79
23281;BME280;11809;56.390;-3.266;2022-09-03T06:36:33;100630.34;;;18.70;69.26
23281;BME280;11809;56.390;-3.266;2022-09-03T06:39:00;100630.22;;;18.71;69.47
23281;BME280;11809;56.390;-3.266;2022-09-03T06:41:29;100638.84;;;18.75;68.97
23281;BME280;11809;56.390;-3.266;2022-09-03T06:44:05;100635.09;;;18.77;69.22
23281;BME280;11809;56.390;-3.266;2022-09-03T06:46:38;100638.50;;;18.80;69.41
23281;BME280;11809;56.390;-3.266;2022-09-03T06:49:08;100630.50;;;18.80;69.62
23281;BME280;11809;56.390;-3.266;2022-09-03T06:51:36;100633.91;;;18.82;69.70
23281;BME280;11809;56.390;-3.266;2022-09-03T06:54:05;100648.84;;;18.84;69.49
23281;BME280;11809;56.390;-3.266;2022-09-03T06:56:35;100635.38;;;18.86;68.97
23281;BME280;11809;56.390;-3.266;2022-09-03T06:59:08;100642.44;;;18.87;68.48
23281;BME280;11809;56.390;-3.266;2022-09-03T07:01:35;100642.16;;;18.90;68.77
23281;BME280;11809;56.390;-3.266;2022-09-03T07:04:11;100645.59;;;18.92;68.71
23281;BME280;11809;56.390;-3.266;2022-09-03T07:06:40;100634.72;;;18.95;68.46
23281;BME280;11809;56.390;-3.266;2022-09-03T07:09:10;100641.72;;;18.96;68.01
23281;BME280;11809;56.390;-3.266;2022-09-03T07:11:37;100646.81;;;18.99;68.31
23281;BME280;11809;56.390;-3.266;2022-09-03T07:14:14;100650.22;;;19.01;68.11
23281;BME280;11809;56.390;-3.266;2022-09-03T07:16:42;100644.03;;;19.00;68.09
23281;BME280;11809;56.390;-3.266;2022-09-03T07:19:09;100639.56;;;19.01;67.99
23281;BME280;11809;56.390;-3.266;2022-09-03T07:21:39;100642.13;;;19.02;68.10
23281;BME280;11809;56.390;-3.266;2022-09-03T07:24:13;100627.81;;;19.03;68.02
23281;BME280;11809;56.390;-3.266;2022-09-03T07:26:41;100642.84;;;19.04;67.81
23281;BME280;11809;56.390;-3.266;2022-09-03T07:29:16;100642.72;;;19.06;68.08
23281;BME280;11809;56.390;-3.266;2022-09-03T07:31:47;100637.31;;;19.07;68.18
23281;BME280;11809;56.390;-3.266;2022-09-03T07:34:18;100647.81;;;19.09;68.03
23281;BME280;11809;56.390;-3.266;2022-09-03T07:36:48;100635.50;;;19.08;67.71
23281;BME280;11809;56.390;-3.266;2022-09-03T07:39:17;100640.81;;;19.08;67.77
23281;BME280;11809;56.390;-3.266;2022-09-03T07:41:45;100637.16;;;19.09;67.92
23281;BME280;11809;56.390;-3.266;2022-09-03T07:44:13;100646.88;;;19.10;67.90
23281;BME280;11809;56.390;-3.266;2022-09-03T07:46:42;100641.53;;;19.10;67.58
23281;BME280;11809;56.390;-3.266;2022-09-03T07:49:11;100654.50;;;19.14;68.45
23281;BME280;11809;56.390;-3.266;2022-09-03T07:51:38;100651.75;;;19.16;68.41
23281;BME280;11809;56.390;-3.266;2022-09-03T07:54:08;100644.06;;;19.11;69.16
23281;BME280;11809;56.390;-3.266;2022-09-03T07:56:38;100652.06;;;19.11;69.30
23281;BME280;11809;56.390;-3.266;2022-09-03T07:59:06;100652.84;;;19.13;69.03
23281;BME280;11809;56.390;-3.266;2022-09-03T08:01:35;100657.06;;;19.16;68.80
23281;BME280;11809;56.390;-3.266;2022-09-03T08:04:07;100650.75;;;19.17;68.58
23281;BME280;11809;56.390;-3.266;2022-09-03T08:06:36;100644.34;;;19.19;68.30
23281;BME280;11809;56.390;-3.266;2022-09-03T08:09:07;100641.59;;;19.21;68.15
23281;BME280;11809;56.390;-3.266;2022-09-03T08:11:37;100650.31;;;19.23;68.02
23281;BME280;11809;56.390;-3.266;2022-09-03T08:14:06;100658.16;;;19.24;67.81
23281;BME280;11809;56.390;-3.266;2022-09-03T08:16:45;100659.75;;;19.27;67.78
23281;BME280;11809;56.390;-3.266;2022-09-03T08:19:16;100655.41;;;19.26;67.71
23281;BME280;11809;56.390;-3.266;2022-09-03T08:21:48;100661.59;;;19.26;67.61
23281;BME280;11809;56.390;-3.266;2022-09-03T08:24:17;100650.81;;;19.28;67.75
23281;BME280;11809;56.390;-3.266;2022-09-03T08:26:47;100647.06;;;19.30;67.56
23281;BME280;11809;56.390;-3.266;2022-09-03T08:29:18;100649.63;;;19.32;68.18
23281;BME280;11809;56.390;-3.266;2022-09-03T08:31:45;100651.06;;;19.36;67.78
23281;BME280;11809;56.390;-3.266;2022-09-03T08:34:13;100646.41;;;19.40;68.09
23281;BME280;11809;56.390;-3.266;2022-09-03T08:36:40;100647.22;;;19.40;67.81
23281;BME280;11809;56.390;-3.266;2022-09-03T08:39:09;100653.19;;;19.44;67.84
23281;BME280;11809;56.390;-3.266;2022-09-03T08:55:14;100661.56;;;19.50;67.70
23281;BME280;11809;56.390;-3.266;2022-09-03T08:57:48;100657.19;;;19.49;67.52
23281;BME280;11809;56.390;-3.266;2022-09-03T09:00:16;100664.22;;;19.50;67.49
23281;BME280;11809;56.390;-3.266;2022-09-03T09:08:34;100658.66;;;19.53;67.29
23281;BME280;11809;56.390;-3.266;2022-09-03T09:11:22;100658.66;;;19.53;67.38
23281;BME280;11809;56.390;-3.266;2022-09-03T09:13:58;100659.41;;;19.55;67.62
23281;BME280;11809;56.390;-3.266;2022-09-03T09:19:52;100650.19;;;19.59;67.06
23281;BME280;11809;56.390;-3.266;2022-09-03T09:24:56;100672.13;;;19.63;67.49
23281;BME280;11809;56.390;-3.266;2022-09-03T09:27:25;100682.66;;;19.64;67.65
23281;BME280;11809;56.390;-3.266;2022-09-03T09:29:52;100678.09;;;19.66;67.44
23281;BME280;11809;56.390;-3.266;2022-09-03T09:32:20;100668.38;;;19.65;67.43
23281;BME280;11809;56.390;-3.266;2022-09-03T09:34:48;100670.81;;;19.68;67.32
23281;BME280;11809;56.390;-3.266;2022-09-03T09:37:18;100677.94;;;19.68;67.13
23281;BME280;11809;56.390;-3.266;2022-09-03T09:39:57;100684.13;;;19.68;67.28
23281;BME280;11809;56.390;-3.266;2022-09-03T09:42:25;100695.66;;;19.69;67.36
23281;BME280;11809;56.390;-3.266;2022-09-03T09:44:55;100697.34;;;19.70;67.37
23281;BME280;11809;56.390;-3.266;2022-09-03T09:47:31;100702.56;;;19.71;67.18
23281;BME280;11809;56.390;-3.266;2022-09-03T09:50:03;100700.63;;;19.73;67.22
23281;BME280;11809;56.390;-3.266;2022-09-03T09:52:30;100698.91;;;19.72;67.35
23281;BME280;11809;56.390;-3.266;2022-09-03T09:55:13;100704.16;;;19.74;67.25
23281;BME280;11809;56.390;-3.266;2022-09-03T09:57:40;100700.63;;;19.73;67.16
23281;BME280;11809;56.390;-3.266;2022-09-03T10:00:11;100688.16;;;19.74;67.12
23281;BME280;11809;56.390;-3.266;2022-09-03T10:02:52;100688.16;;;19.74;67.14
23281;BME280;11809;56.390;-3.266;2022-09-03T10:05:25;100696.88;;;19.76;67.20
23281;BME280;11809;56.390;-3.266;2022-09-03T10:07:57;100689.00;;;19.74;66.94
23281;BME280;11809;56.390;-3.266;2022-09-03T10:10:25;100694.22;;;19.76;67.37
23281;BME280;11809;56.390;-3.266;2022-09-03T10:13:05;100694.34;;;19.74;67.12
23281;BME280;11809;56.390;-3.266;2022-09-03T10:22:00;100710.22;;;19.76;67.01
23281;BME280;11809;56.390;-3.266;2022-09-03T10:26:46;100715.78;;;19.73;67.03
23281;BME280;11809;56.390;-3.266;2022-09-03T10:29:21;100709.81;;;19.69;67.30
23281;BME280;11809;56.390;-3.266;2022-09-03T10:32:32;100721.47;;;19.68;67.24
23281;BME280;11809;56.390;-3.266;2022-09-03T10:35:28;100718.91;;;19.67;67.12
23281;BME280;11809;56.390;-3.266;2022-09-03T10:46:15;100727.25;;;19.62;67.18
23281;BME280;11809;56.390;-3.266;2022-09-03T10:52:09;100735.38;;;19.61;67.14
23281;BME280;11809;56.390;-3.266;2022-09-03T11:00:19;100728.34;;;19.60;67.36
23281;BME280;11809;56.390;-3.266;2022-09-03T11:08:30;100740.31;;;19.54;68.04
23281;BME280;11809;56.390;-3.266;2022-09-03T11:11:25;100751.22;;;19.51;69.15
23281;BME280;11809;56.390;-3.266;2022-09-03T11:14:08;100743.13;;;19.53;69.00
23281;BME280;11809;56.390;-3.266;2022-09-03T11:16:50;100746.63;;;19.53;68.35
23281;BME280;11809;56.390;-3.266;2022-09-03T11:19:25;100737.66;;;19.54;68.35
23281;BME280;11809;56.390;-3.266;2022-09-03T11:21:56;100735.00;;;19.54;68.20
23281;BME280;11809;56.390;-3.266;2022-09-03T11:24:26;100744.69;;;19.55;68.02
23281;BME280;11809;56.390;-3.266;2022-09-03T11:29:54;100734.91;;;19.56;67.97
23281;BME280;11809;56.390;-3.266;2022-09-03T11:32:50;100734.91;;;19.56;67.91
23281;BME280;11809;56.390;-3.266;2022-09-03T11:40:38;100730.75;;;19.52;67.96
23281;BME280;11809;56.390;-3.266;2022-09-03T11:45:37;100727.00;;;19.54;68.22
23281;BME280;11809;56.390;-3.266;2022-09-03T11:48:28;100734.03;;;19.55;68.62
23281;BME280;11809;56.390;-3.266;2022-09-03T11:50:59;100729.31;;;19.59;69.14
23281;BME280;11809;56.390;-3.266;2022-09-03T11:53:33;100732.59;;;19.62;68.95
23281;BME280;11809;56.390;-3.266;2022-09-03T11:56:11;100727.16;;;19.64;68.30
23281;BME280;11809;56.390;-3.266;2022-09-03T11:58:40;100723.63;;;19.63;68.21
23281;BME280;11809;56.390;-3.266;2022-09-03T12:01:13;100718.31;;;19.63;68.37
23281;BME280;11809;56.390;-3.266;2022-09-03T12:03:52;100726.31;;;19.63;68.17
23281;BME280;11809;56.390;-3.266;2022-09-03T12:17:52;100726.56;;;19.71;67.69
23281;BME280;11809;56.390;-3.266;2022-09-03T12:20:39;100728.25;;;19.72;68.00
23281;BME280;11809;56.390;-3.266;2022-09-03T12:23:12;100722.09;;;19.72;68.00
23281;BME280;11809;56.390;-3.266;2022-09-03T12:25:44;100715.91;;;19.71;68.05
23281;BME280;11809;56.390;-3.266;2022-09-03T12:28:16;100728.88;;;19.76;67.64
23281;BME280;11809;56.390;-3.266;2022-09-03T12:30:49;100715.53;;;19.76;68.07
23281;BME280;11809;56.390;-3.266;2022-09-03T12:33:21;100715.41;;;19.77;68.04
23281;BME280;11809;56.390;-3.266;2022-09-03T12:35:56;100725.25;;;19.77;68.27
23281;BME280;11809;56.390;-3.266;2022-09-03T12:38:25;100720.75;;;19.77;67.94
23281;BME280;11809;56.390;-3.266;2022-09-03T12:40:53;100722.47;;;19.78;68.07
23281;BME280;11809;56.390;-3.266;2022-09-03T12:43:40;100737.59;;;19.78;68.32
23281;BME280;11809;56.390;-3.266;2022-09-03T12:46:15;100741.25;;;19.77;68.28
23281;BME280;11809;56.390;-3.266;2022-09-03T12:49:03;100740.41;;;19.76;68.39
23281;BME280;11809;56.390;-3.266;2022-09-03T12:52:01;100752.75;;;19.77;68.27
23281;BME280;11809;56.390;-3.266;2022-09-03T12:54:36;100742.94;;;19.78;68.01
23281;BME280;11809;56.390;-3.266;2022-09-03T12:57:05;100729.72;;;19.76;68.33
23281;BME280;11809;56.390;-3.266;2022-09-03T12:59:35;100733.34;;;19.75;68.30
23281;BME280;11809;56.390;-3.266;2022-09-03T13:02:13;100732.41;;;19.76;68.31
23281;BME280;11809;56.390;-3.266;2022-09-03T13:04:42;100733.34;;;19.75;68.13
23281;BME280;11809;56.390;-3.266;2022-09-03T13:09:47;100714.09;;;19.72;67.86
23281;BME280;11809;56.390;-3.266;2022-09-03T13:12:23;100716.75;;;19.72;68.12
23281;BME280;11809;56.390;-3.266;2022-09-03T13:14:55;100719.53;;;19.70;68.09
23281;BME280;11809;56.390;-3.266;2022-09-03T13:17:46;100723.16;;;19.69;68.33
23281;BME280;11809;56.390;-3.266;2022-09-03T13:20:32;100728.47;;;19.69;68.25
23281;BME280;11809;56.390;-3.266;2022-09-03T13:23:09;100721.47;;;19.68;68.29
23281;BME280;11809;56.390;-3.266;2022-09-03T13:25:54;100727.66;;;19.69;68.39
23281;BME280;11809;56.390;-3.266;2022-09-03T13:36:53;100734.06;;;19.66;67.97
23281;BME280;11809;56.390;-3.266;2022-09-03T13:41:56;100730.41;;;19.67;68.23
23281;BME280;11809;56.390;-3.266;2022-09-03T13:50:03;100736.47;;;19.69;68.17
23281;BME280;11809;56.390;-3.266;2022-09-03T13:58:02;100725.94;;;19.68;68.54
23281;BME280;11809;56.390;-3.266;2022-09-03T14:00:51;100723.41;;;19.66;68.33
23281;BME280;11809;56.390;-3.266;2022-09-03T14:15:07;100726.06;;;19.66;68.93
23281;BME280;11809;56.390;-3.266;2022-09-03T14:17:45;100718.06;;;19.66;68.58
23281;BME280;11809;56.390;-3.266;2022-09-03T14:20:23;100711.75;;;19.67;68.52
23281;BME280;11809;56.390;-3.266;2022-09-03T14:25:31;100715.41;;;19.66;69.08
23281;BME280;11809;56.390;-3.266;2022-09-03T14:28:47;100715.41;;;19.66;68.93
23281;BME280;11809;56.390;-3.266;2022-09-03T14:34:22;100700.50;;;19.64;68.64
23281;BME280;11809;56.390;-3.266;2022-09-03T14:39:53;100711.25;;;19.62;68.76
23281;BME280;11809;56.390;-3.266;2022-09-03T14:57:38;100676.13;;;19.68;68.68
23281;BME280;11809;56.390;-3.266;2022-09-03T15:00:20;100687.75;;;19.67;68.52
23281;BME280;11809;56.390;-3.266;2022-09-03T15:02:52;100689.47;;;19.68;68.39
23281;BME280;11809;56.390;-3.266;2022-09-03T15:06:24;100691.06;;;19.71;69.27
23281;BME280;11809;56.390;-3.266;2022-09-03T15:08:55;100684.13;;;19.68;69.15
23281;BME280;11809;56.390;-3.266;2022-09-03T15:11:32;100686.66;;;19.70;69.11
23281;BME280;11809;56.390;-3.266;2022-09-03T15:14:26;100684.13;;;19.68;68.86
23281;BME280;11809;56.390;-3.266;2022-09-03T15:17:00;100681.56;;;19.67;68.55
23281;BME280;11809;56.390;-3.266;2022-09-03T15:19:47;100677.09;;;19.67;68.56
23281;BME280;11809;56.390;-3.266;2022-09-03T15:22:35;100685.09;;;19.67;68.67
23281;BME280;11809;56.390;-3.266;2022-09-03T15:28:01;100680.47;;;19.69;68.78
23281;BME280;11809;56.390;-3.266;2022-09-03T15:30:44;100687.66;;;19.69;68.70
23281;BME280;11809;56.390;-3.266;2022-09-03T15:33:28;100689.47;;;19.68;68.61
23281;BME280;11809;56.390;-3.266;2022-09-03T15:36:14;100682.31;;;19.69;68.66
23281;BME280;11809;56.390;-3.266;2022-09-03T15:39:10;100677.72;;;19.71;68.64
23281;BME280;11809;56.390;-3.266;2022-09-03T15:41:45;100685.81;;;19.69;68.93
23281;BME280;11809;56.390;-3.266;2022-09-03T15:44:14;100691.16;;;19.69;69.15
23281;BME280;11809;56.390;-3.266;2022-09-03T15:46:49;100689.25;;;19.71;69.02
23281;BME280;11809;56.390;-3.266;2022-09-03T15:55:09;100694.81;;;19.68;68.71
23281;BME280;11809;56.390;-3.266;2022-09-03T16:03:54;100684.13;;;19.68;68.63
23281;BME280;11809;56.390;-3.266;2022-09-03T16:06:41;100687.53;;;19.70;68.50
23281;BME280;11809;56.390;-3.266;2022-09-03T16:15:04;100689.47;;;19.68;68.27
23281;BME280;11809;56.390;-3.266;2022-09-03T16:17:51;100688.75;;;19.66;68.56
23281;BME280;11809;56.390;-3.266;2022-09-03T16:26:02;100697.06;;;19.62;69.47
23281;BME280;11809;56.390;-3.266;2022-09-03T16:28:53;100696.34;;;19.60;69.41
23281;BME280;11809;56.390;-3.266;2022-09-03T16:34:27;100694.63;;;19.59;68.76
23281;BME280;11809;56.390;-3.266;2022-09-03T16:42:52;100669.69;;;19.60;68.64
23281;BME280;11809;56.390;-3.266;2022-09-03T16:48:53;100666.94;;;19.61;68.45
23281;BME280;11809;56.390;-3.266;2022-09-03T16:51:32;100673.69;;;19.54;69.49
23281;BME280;11809;56.390;-3.266;2022-09-03T17:25:27;100674.28;;;19.47;69.98
23281;BME280;11809;56.390;-3.266;2022-09-03T17:36:15;100686.50;;;19.49;69.34
23281;BME280;11809;56.390;-3.266;2022-09-03T17:39:22;100690.13;;;19.48;69.50
23281;BME280;11809;56.390;-3.266;2022-09-03T17:49:59;100694.63;;;19.48;69.42
23281;BME280;11809;56.390;-3.266;2022-09-03T17:52:52;100698.13;;;19.48;69.25
23281;BME280;11809;56.390;-3.266;2022-09-03T17:55:37;100687.47;;;19.48;69.14
23281;BME280;11809;56.390;-3.266;2022-09-03T17:58:40;100687.38;;;19.50;69.84